PWSweather.com
Personal Weather Stations
Station Observations
KCTCOLEB1
Sandy Brook, Colebrook, CT 06021

Sandy BrookColebrook, CT 06021

Lat: 42.0018, Lon: -73.0825

Elevation: 935

Station Type: Davis Vantage Pro2 + Solar + UV

High Low Average
Temperature 80.3°F26.8°C 47.4°F8.6°C 63.5°F17.5°C
Dew Point 62.4°F16.9°C 46.3°F7.9°C 53.9°F12.2°C
Winds 3.5 mph 5.6 kmh Calm Calm Calm SWCalm SW
Wind Gusts 6.9 mph11.1 kmh -- 1.0 mph1.6 kmh
Humidity 98% 38% 75%
Pressure 29.86 in1011.2 mb 29.73 in1006.8 mb -
Precipitation 0.00 in0.0 mm - -
Hour Temp Dew Point Humidity Winds Wind Gusts Pressure Precip Precip Rate Daily Precip Total
12:00 AM 53.2°F11.8°C 51.5°F10.8°C 94% Calm Calm -- 29.79 in1008.8 mb - 0.00 in0.0 mm 0.00 in0.0 mm
12:10 AM 52.9°F11.6°C 51.2°F10.7°C 94% Calm Calm -- 29.79 in1008.8 mb - 0.00 in0.0 mm 0.00 in0.0 mm
12:20 AM 52.7°F11.5°C 51.0°F10.6°C 94% Calm Calm -- 29.80 in1009.1 mb - 0.00 in0.0 mm 0.00 in0.0 mm
12:30 AM 52.4°F11.3°C 50.8°F10.4°C 94% Calm Calm -- 29.80 in1009.1 mb - 0.00 in0.0 mm 0.00 in0.0 mm
12:40 AM 52.2°F11.2°C 50.5°F10.3°C 94% Calm Calm -- 29.80 in1009.1 mb - 0.00 in0.0 mm 0.00 in0.0 mm
12:50 AM 51.9°F11.1°C 50.2°F10.1°C 94% Calm Calm -- 29.80 in1009.1 mb - 0.00 in0.0 mm 0.00 in0.0 mm
01:00 AM 51.7°F10.9°C 50.0°F10.0°C 94% Calm Calm -- 29.80 in1009.1 mb - 0.00 in0.0 mm 0.00 in0.0 mm
01:10 AM 51.4°F10.8°C 49.8°F9.9°C 94% Calm Calm -- 29.79 in1008.8 mb - 0.00 in0.0 mm 0.00 in0.0 mm
01:20 AM 51.2°F10.7°C 49.5°F9.7°C 94% Calm Calm -- 29.79 in1008.8 mb - 0.00 in0.0 mm 0.00 in0.0 mm
01:30 AM 51.0°F10.6°C 49.3°F9.6°C 94% Calm Calm -- 29.79 in1008.8 mb - 0.00 in0.0 mm 0.00 in0.0 mm
01:40 AM 50.8°F10.4°C 49.1°F9.5°C 94% Calm Calm -- 29.79 in1008.8 mb - 0.00 in0.0 mm 0.00 in0.0 mm
01:50 AM 50.5°F10.3°C 49.1°F9.5°C 95% Calm Calm -- 29.79 in1008.8 mb - 0.00 in0.0 mm 0.00 in0.0 mm
02:00 AM 50.4°F10.2°C 48.7°F9.3°C 94% Calm Calm -- 29.79 in1008.8 mb - 0.00 in0.0 mm 0.00 in0.0 mm
02:10 AM 50.1°F10.1°C 48.4°F9.1°C 94% Calm Calm -- 29.79 in1008.8 mb - 0.00 in0.0 mm 0.00 in0.0 mm
02:20 AM 49.9°F9.9°C 48.2°F9.0°C 94% Calm Calm -- 29.80 in1009.1 mb - 0.00 in0.0 mm 0.00 in0.0 mm
02:30 AM 49.6°F9.8°C 47.9°F8.8°C 94% Calm Calm -- 29.80 in1009.1 mb - 0.00 in0.0 mm 0.00 in0.0 mm
02:40 AM 49.5°F9.7°C 48.1°F8.9°C 95% Calm Calm -- 29.81 in1009.5 mb - 0.00 in0.0 mm 0.00 in0.0 mm
02:50 AM 49.3°F9.6°C 47.9°F8.8°C 95% Calm Calm -- 29.81 in1009.5 mb - 0.00 in0.0 mm 0.00 in0.0 mm
03:00 AM 49.1°F9.5°C 47.7°F8.7°C 95% Calm Calm -- 29.80 in1009.1 mb - 0.00 in0.0 mm 0.00 in0.0 mm
03:10 AM 48.9°F9.4°C 47.5°F8.6°C 95% Calm Calm -- 29.80 in1009.1 mb - 0.00 in0.0 mm 0.00 in0.0 mm
03:20 AM 48.8°F9.3°C 47.4°F8.6°C 95% Calm Calm -- 29.81 in1009.5 mb - 0.00 in0.0 mm 0.00 in0.0 mm
03:30 AM 48.6°F9.2°C 47.2°F8.4°C 95% Calm Calm -- 29.82 in1009.8 mb - 0.00 in0.0 mm 0.00 in0.0 mm
03:40 AM 48.5°F9.2°C 47.1°F8.4°C 95% Calm Calm -- 29.82 in1009.8 mb - 0.00 in0.0 mm 0.00 in0.0 mm
03:50 AM 48.3°F9.1°C 46.9°F8.3°C 95% Calm Calm -- 29.82 in1009.8 mb - 0.00 in0.0 mm 0.00 in0.0 mm
04:00 AM 48.2°F9.0°C 46.8°F8.2°C 95% Calm Calm -- 29.82 in1009.8 mb - 0.00 in0.0 mm 0.00 in0.0 mm
04:10 AM 48.0°F8.9°C 46.6°F8.1°C 95% Calm Calm -- 29.82 in1009.8 mb - 0.00 in0.0 mm 0.00 in0.0 mm
04:20 AM 47.8°F8.8°C 46.7°F8.2°C 96% Calm Calm -- 29.82 in1009.8 mb - 0.00 in0.0 mm 0.00 in0.0 mm
04:30 AM 47.7°F8.7°C 46.6°F8.1°C 96% Calm Calm -- 29.82 in1009.8 mb - 0.00 in0.0 mm 0.00 in0.0 mm
04:40 AM 47.6°F8.7°C 46.5°F8.1°C 96% Calm Calm -- 29.83 in1010.2 mb - 0.00 in0.0 mm 0.00 in0.0 mm
04:50 AM 47.5°F8.6°C 46.4°F8.0°C 96% Calm Calm -- 29.83 in1010.2 mb - 0.00 in0.0 mm 0.00 in0.0 mm
05:00 AM 47.4°F8.6°C 46.3°F7.9°C 96% Calm Calm -- 29.83 in1010.2 mb - 0.00 in0.0 mm 0.00 in0.0 mm
05:10 AM 47.4°F8.6°C 46.3°F7.9°C 96% Calm Calm -- 29.84 in1010.5 mb - 0.00 in0.0 mm 0.00 in0.0 mm
05:20 AM 47.4°F8.6°C 46.3°F7.9°C 96% Calm Calm -- 29.84 in1010.5 mb - 0.00 in0.0 mm 0.00 in0.0 mm
05:30 AM 47.4°F8.6°C 46.3°F7.9°C 96% Calm Calm -- 29.85 in1010.8 mb - 0.00 in0.0 mm 0.00 in0.0 mm
05:40 AM 47.6°F8.7°C 46.5°F8.1°C 96% Calm Calm -- 29.86 in1011.2 mb - 0.00 in0.0 mm 0.00 in0.0 mm
05:50 AM 47.8°F8.8°C 47.0°F8.3°C 97% Calm Calm -- 29.86 in1011.2 mb - 0.00 in0.0 mm 0.00 in0.0 mm
06:00 AM 48.1°F8.9°C 47.3°F8.5°C 97% Calm Calm -- 29.86 in1011.2 mb - 0.00 in0.0 mm 0.00 in0.0 mm
06:10 AM 48.5°F9.2°C 47.7°F8.7°C 97% Calm Calm -- 29.85 in1010.8 mb - 0.00 in0.0 mm 0.00 in0.0 mm
06:20 AM 49.0°F9.4°C 48.2°F9.0°C 97% Calm Calm -- 29.84 in1010.5 mb - 0.00 in0.0 mm 0.00 in0.0 mm
06:30 AM 49.5°F9.7°C 48.7°F9.3°C 97% Calm Calm -- 29.84 in1010.5 mb - 0.00 in0.0 mm 0.00 in0.0 mm
06:40 AM 50.0°F10.0°C 49.5°F9.7°C 98% Calm Calm -- 29.84 in1010.5 mb - 0.00 in0.0 mm 0.00 in0.0 mm
06:50 AM 50.5°F10.3°C 49.9°F9.9°C 98% Calm Calm -- 29.83 in1010.2 mb - 0.00 in0.0 mm 0.00 in0.0 mm
07:00 AM 51.2°F10.7°C 50.7°F10.4°C 98% Calm Calm -- 29.83 in1010.2 mb - 0.00 in0.0 mm 0.00 in0.0 mm
07:10 AM 51.8°F11.0°C 51.3°F10.7°C 98% Calm Calm -- 29.83 in1010.2 mb - 0.00 in0.0 mm 0.00 in0.0 mm
07:20 AM 52.4°F11.3°C 51.9°F11.1°C 98% Calm Calm -- 29.83 in1010.2 mb - 0.00 in0.0 mm 0.00 in0.0 mm
07:30 AM 53.1°F11.7°C 52.6°F11.4°C 98% Calm Calm -- 29.84 in1010.5 mb - 0.00 in0.0 mm 0.00 in0.0 mm
07:40 AM 53.6°F12.0°C 53.1°F11.7°C 98% Calm Calm -- 29.83 in1010.2 mb - 0.00 in0.0 mm 0.00 in0.0 mm
07:50 AM 54.6°F12.6°C 54.0°F12.2°C 98% Calm Calm -- 29.83 in1010.2 mb - 0.00 in0.0 mm 0.00 in0.0 mm
08:00 AM 55.6°F13.1°C 55.0°F12.8°C 98% Calm Calm -- 29.83 in1010.2 mb - 0.00 in0.0 mm 0.00 in0.0 mm
08:10 AM 56.8°F13.8°C 55.6°F13.1°C 96% Calm Calm -- 29.83 in1010.2 mb - 0.00 in0.0 mm 0.00 in0.0 mm
08:20 AM 59.0°F15.0°C 57.3°F14.1°C 94% Calm Calm -- 29.83 in1010.2 mb - 0.00 in0.0 mm 0.00 in0.0 mm
08:30 AM 61.3°F16.3°C 57.7°F14.3°C 88% Calm Calm -- 29.83 in1010.2 mb - 0.00 in0.0 mm 0.00 in0.0 mm
08:40 AM 63.2°F17.3°C 58.3°F14.6°C 84% Calm Calm -- 29.83 in1010.2 mb - 0.00 in0.0 mm 0.00 in0.0 mm
08:50 AM 65.3°F18.5°C 57.9°F14.4°C 77% Calm Calm -- 29.82 in1009.8 mb - 0.00 in0.0 mm 0.00 in0.0 mm
09:00 AM 66.8°F19.3°C 53.4°F11.9°C 62% 1.2 mph N1.9 kmh N 1.2 mph1.9 kmh 29.83 in1010.2 mb - 0.00 in0.0 mm 0.00 in0.0 mm
09:10 AM 68.1°F20.1°C 53.2°F11.8°C 59% 1.2 mph SE1.9 kmh SE 2.3 mph3.7 kmh 29.83 in1010.2 mb - 0.00 in0.0 mm 0.00 in0.0 mm
09:20 AM 69.7°F20.9°C 57.8°F14.3°C 66% 1.2 mph N1.9 kmh N 2.3 mph3.7 kmh 29.82 in1009.8 mb - 0.00 in0.0 mm 0.00 in0.0 mm
09:30 AM 70.8°F21.6°C 54.4°F12.4°C 56% Calm Calm 1.2 mph1.9 kmh 29.83 in1010.2 mb - 0.00 in0.0 mm 0.00 in0.0 mm
09:40 AM 71.9°F22.2°C 57.3°F14.1°C 60% 1.2 mph SE1.9 kmh SE 2.3 mph3.7 kmh 29.83 in1010.2 mb - 0.00 in0.0 mm 0.00 in0.0 mm
09:50 AM 72.6°F22.6°C 56.0°F13.3°C 56% Calm Calm 2.3 mph3.7 kmh 29.84 in1010.5 mb - 0.00 in0.0 mm 0.00 in0.0 mm
10:00 AM 73.8°F23.2°C 57.1°F13.9°C 56% Calm Calm 3.5 mph5.6 kmh 29.84 in1010.5 mb - 0.00 in0.0 mm 0.00 in0.0 mm
10:10 AM 74.1°F23.4°C 54.8°F12.7°C 51% 1.2 mph E1.9 kmh E 2.3 mph3.7 kmh 29.83 in1010.2 mb - 0.00 in0.0 mm 0.00 in0.0 mm
10:20 AM 73.8°F23.2°C 52.9°F11.6°C 48% 1.2 mph NW1.9 kmh NW 2.3 mph3.7 kmh 29.83 in1010.2 mb - 0.00 in0.0 mm 0.00 in0.0 mm
10:30 AM 74.2°F23.4°C 54.4°F12.4°C 50% 1.2 mph E1.9 kmh E 2.3 mph3.7 kmh 29.83 in1010.2 mb - 0.00 in0.0 mm 0.00 in0.0 mm
10:40 AM 74.2°F23.4°C 53.2°F11.8°C 48% 1.2 mph SW1.9 kmh SW 3.5 mph5.6 kmh 29.82 in1009.8 mb - 0.00 in0.0 mm 0.00 in0.0 mm
10:50 AM 74.3°F23.5°C 52.2°F11.2°C 46% 2.3 mph WSW3.7 kmh WSW 6.9 mph11.1 kmh 29.83 in1010.2 mb - 0.00 in0.0 mm 0.00 in0.0 mm
11:00 AM 74.2°F23.4°C 51.5°F10.8°C 45% 2.3 mph SSE3.7 kmh SSE 5.8 mph9.3 kmh 29.82 in1009.8 mb - 0.00 in0.0 mm 0.00 in0.0 mm
11:10 AM 74.4°F23.6°C 50.5°F10.3°C 43% 3.5 mph NW5.6 kmh NW 3.5 mph5.6 kmh 29.82 in1009.8 mb - 0.00 in0.0 mm 0.00 in0.0 mm
11:20 AM 75.3°F24.1°C 50.0°F10.0°C 41% 1.2 mph E1.9 kmh E 2.3 mph3.7 kmh 29.82 in1009.8 mb - 0.00 in0.0 mm 0.00 in0.0 mm
11:30 AM 75.8°F24.3°C 51.1°F10.6°C 42% 1.2 mph SE1.9 kmh SE 2.3 mph3.7 kmh 29.81 in1009.5 mb - 0.00 in0.0 mm 0.00 in0.0 mm
11:40 AM 76.2°F24.6°C 51.4°F10.8°C 42% 1.2 mph S1.9 kmh S 2.3 mph3.7 kmh 29.81 in1009.5 mb - 0.00 in0.0 mm 0.00 in0.0 mm
11:50 AM 76.6°F24.8°C 49.1°F9.5°C 38% 1.2 mph NE1.9 kmh NE 2.3 mph3.7 kmh 29.81 in1009.5 mb - 0.00 in0.0 mm 0.00 in0.0 mm
12:00 PM 77.4°F25.2°C 55.6°F13.1°C 47% Calm Calm 2.3 mph3.7 kmh 29.81 in1009.5 mb - 0.00 in0.0 mm 0.00 in0.0 mm
12:10 PM 77.7°F25.4°C 53.4°F11.9°C 43% 1.2 mph ESE1.9 kmh ESE 2.3 mph3.7 kmh 29.80 in1009.1 mb - 0.00 in0.0 mm 0.00 in0.0 mm
12:20 PM 78.2°F25.7°C 56.9°F13.8°C 48% Calm Calm 1.2 mph1.9 kmh 29.80 in1009.1 mb - 0.00 in0.0 mm 0.00 in0.0 mm
12:30 PM 78.5°F25.8°C 54.8°F12.7°C 44% 1.2 mph WSW1.9 kmh WSW 2.3 mph3.7 kmh 29.79 in1008.8 mb - 0.00 in0.0 mm 0.00 in0.0 mm
12:40 PM 78.0°F25.6°C 51.7°F10.9°C 40% 1.2 mph ESE1.9 kmh ESE 2.3 mph3.7 kmh 29.79 in1008.8 mb - 0.00 in0.0 mm 0.00 in0.0 mm
12:50 PM 78.8°F26.0°C 53.7°F12.1°C 42% 1.2 mph SW1.9 kmh SW 2.3 mph3.7 kmh 29.78 in1008.5 mb - 0.00 in0.0 mm 0.00 in0.0 mm
01:00 PM 79.1°F26.2°C 55.3°F12.9°C 44% 1.2 mph S1.9 kmh S 2.3 mph3.7 kmh 29.77 in1008.1 mb - 0.00 in0.0 mm 0.00 in0.0 mm
01:10 PM 79.2°F26.2°C 54.1°F12.3°C 42% 3.5 mph SW5.6 kmh SW 6.9 mph11.1 kmh 29.77 in1008.1 mb - 0.00 in0.0 mm 0.00 in0.0 mm
01:20 PM 79.4°F26.3°C 56.2°F13.4°C 45% 1.2 mph SE1.9 kmh SE 1.2 mph1.9 kmh 29.77 in1008.1 mb - 0.00 in0.0 mm 0.00 in0.0 mm
01:30 PM 79.7°F26.5°C 55.9°F13.3°C 44% 1.2 mph S1.9 kmh S 2.3 mph3.7 kmh 29.77 in1008.1 mb - 0.00 in0.0 mm 0.00 in0.0 mm
01:40 PM 79.9°F26.6°C 58.4°F14.7°C 48% Calm Calm 4.6 mph7.4 kmh 29.76 in1007.8 mb - 0.00 in0.0 mm 0.00 in0.0 mm
01:50 PM 79.7°F26.5°C 56.5°F13.6°C 45% 1.2 mph S1.9 kmh S 2.3 mph3.7 kmh 29.75 in1007.5 mb - 0.00 in0.0 mm 0.00 in0.0 mm
02:00 PM 80.1°F26.7°C 56.2°F13.4°C 44% Calm Calm 1.2 mph1.9 kmh 29.75 in1007.5 mb - 0.00 in0.0 mm 0.00 in0.0 mm
02:10 PM 80.3°F26.8°C 54.4°F12.4°C 41% 1.2 mph ENE1.9 kmh ENE 2.3 mph3.7 kmh 29.75 in1007.5 mb - 0.00 in0.0 mm 0.00 in0.0 mm
02:20 PM 80.3°F26.8°C 60.5°F15.8°C 51% Calm Calm -- 29.75 in1007.5 mb - 0.00 in0.0 mm 0.00 in0.0 mm
02:30 PM 79.5°F26.4°C 54.4°F12.4°C 42% 1.2 mph NE1.9 kmh NE 2.3 mph3.7 kmh 29.74 in1007.1 mb - 0.00 in0.0 mm 0.00 in0.0 mm
02:40 PM 79.4°F26.3°C 55.0°F12.8°C 43% 1.2 mph S1.9 kmh S 2.3 mph3.7 kmh 29.73 in1006.8 mb - 0.00 in0.0 mm 0.00 in0.0 mm
02:50 PM 79.6°F26.4°C 59.3°F15.2°C 50% Calm Calm 6.9 mph11.1 kmh 29.73 in1006.8 mb - 0.00 in0.0 mm 0.00 in0.0 mm
03:00 PM 79.5°F26.4°C 59.2°F15.1°C 50% Calm Calm -- 29.73 in1006.8 mb - 0.00 in0.0 mm 0.00 in0.0 mm
03:10 PM 79.4°F26.3°C 57.4°F14.1°C 47% 1.2 mph E1.9 kmh E 2.3 mph3.7 kmh 29.73 in1006.8 mb - 0.00 in0.0 mm 0.00 in0.0 mm
03:20 PM 79.3°F26.3°C 56.1°F13.4°C 45% 3.5 mph E5.6 kmh E 4.6 mph7.4 kmh 29.73 in1006.8 mb - 0.00 in0.0 mm 0.00 in0.0 mm
03:30 PM 78.7°F25.9°C 59.6°F15.3°C 52% Calm Calm 2.3 mph3.7 kmh 29.73 in1006.8 mb - 0.00 in0.0 mm 0.00 in0.0 mm
03:40 PM 78.2°F25.7°C 58.6°F14.8°C 51% 2.3 mph E3.7 kmh E 5.8 mph9.3 kmh 29.73 in1006.8 mb - 0.00 in0.0 mm 0.00 in0.0 mm
03:50 PM 77.4°F25.2°C 55.6°F13.1°C 47% 1.2 mph SSW1.9 kmh SSW 5.8 mph9.3 kmh 29.73 in1006.8 mb - 0.00 in0.0 mm 0.00 in0.0 mm
04:00 PM 77.3°F25.2°C 59.4°F15.2°C 54% 1.2 mph E1.9 kmh E 1.2 mph1.9 kmh 29.73 in1006.8 mb - 0.00 in0.0 mm 0.00 in0.0 mm
04:10 PM 76.9°F24.9°C 59.5°F15.3°C 55% 1.2 mph SE1.9 kmh SE 2.3 mph3.7 kmh 29.74 in1007.1 mb - 0.00 in0.0 mm 0.00 in0.0 mm
04:20 PM 76.5°F24.7°C 60.1°F15.6°C 57% 2.3 mph S3.7 kmh S 3.5 mph5.6 kmh 29.73 in1006.8 mb - 0.00 in0.0 mm 0.00 in0.0 mm
04:30 PM 76.2°F24.6°C 60.3°F15.7°C 58% 1.2 mph N1.9 kmh N 2.3 mph3.7 kmh 29.73 in1006.8 mb - 0.00 in0.0 mm 0.00 in0.0 mm
04:40 PM 75.8°F24.3°C 59.5°F15.3°C 57% Calm Calm 1.2 mph1.9 kmh 29.73 in1006.8 mb - 0.00 in0.0 mm 0.00 in0.0 mm
04:50 PM 75.7°F24.3°C 59.9°F15.5°C 58% 1.2 mph SW1.9 kmh SW 3.5 mph5.6 kmh 29.73 in1006.8 mb - 0.00 in0.0 mm 0.00 in0.0 mm
05:00 PM 75.3°F24.1°C 61.4°F16.3°C 62% Calm Calm 1.2 mph1.9 kmh 29.73 in1006.8 mb - 0.00 in0.0 mm 0.00 in0.0 mm
05:10 PM 74.9°F23.8°C 62.4°F16.9°C 65% Calm Calm -- 29.73 in1006.8 mb - 0.00 in0.0 mm 0.00 in0.0 mm
05:20 PM 74.2°F23.4°C 58.5°F14.7°C 58% 1.2 mph ESE1.9 kmh ESE 3.5 mph5.6 kmh 29.73 in1006.8 mb - 0.00 in0.0 mm 0.00 in0.0 mm
05:30 PM 73.8°F23.2°C 57.6°F14.2°C 57% 2.3 mph E3.7 kmh E 3.5 mph5.6 kmh 29.73 in1006.8 mb - 0.00 in0.0 mm 0.00 in0.0 mm
05:40 PM 73.6°F23.1°C 60.2°F15.7°C 63% Calm Calm -- 29.73 in1006.8 mb - 0.00 in0.0 mm 0.00 in0.0 mm
05:50 PM 73.2°F22.9°C 59.9°F15.5°C 63% Calm Calm -- 29.73 in1006.8 mb - 0.00 in0.0 mm 0.00 in0.0 mm
06:00 PM 72.9°F22.7°C 61.3°F16.3°C 67% Calm Calm 1.2 mph1.9 kmh 29.74 in1007.1 mb - 0.00 in0.0 mm 0.00 in0.0 mm
06:10 PM 72.1°F22.3°C 61.4°F16.3°C 69% Calm Calm -- 29.74 in1007.1 mb - 0.00 in0.0 mm 0.00 in0.0 mm
06:20 PM 71.3°F21.8°C 61.4°F16.3°C 71% Calm Calm -- 29.74 in1007.1 mb - 0.00 in0.0 mm 0.00 in0.0 mm
06:30 PM 70.4°F21.3°C 60.9°F16.1°C 72% 1.2 mph ESE1.9 kmh ESE 1.2 mph1.9 kmh 29.74 in1007.1 mb - 0.00 in0.0 mm 0.00 in0.0 mm
06:40 PM 69.7°F20.9°C 61.0°F16.1°C 74% Calm Calm 1.2 mph1.9 kmh 29.75 in1007.5 mb - 0.00 in0.0 mm 0.00 in0.0 mm
06:50 PM 69.1°F20.6°C 61.3°F16.3°C 76% Calm Calm 1.2 mph1.9 kmh 29.75 in1007.5 mb - 0.00 in0.0 mm 0.00 in0.0 mm
07:00 PM 68.5°F20.3°C 59.9°F15.5°C 74% Calm Calm 1.2 mph1.9 kmh 29.76 in1007.8 mb - 0.00 in0.0 mm 0.00 in0.0 mm
07:10 PM 67.9°F19.9°C 59.3°F15.2°C 74% Calm Calm 2.3 mph3.7 kmh 29.76 in1007.8 mb - 0.00 in0.0 mm 0.00 in0.0 mm
07:20 PM 67.4°F19.7°C 58.5°F14.7°C 73% Calm Calm -- 29.76 in1007.8 mb - 0.00 in0.0 mm 0.00 in0.0 mm
07:30 PM 66.9°F19.4°C 58.0°F14.4°C 73% Calm Calm 1.2 mph1.9 kmh 29.76 in1007.8 mb - 0.00 in0.0 mm 0.00 in0.0 mm
07:40 PM 66.4°F19.1°C 57.8°F14.3°C 74% Calm Calm -- 29.76 in1007.8 mb - 0.00 in0.0 mm 0.00 in0.0 mm
07:50 PM 65.6°F18.7°C 57.1°F13.9°C 74% Calm Calm -- 29.76 in1007.8 mb - 0.00 in0.0 mm 0.00 in0.0 mm
08:00 PM 65.0°F18.3°C 56.9°F13.8°C 75% Calm Calm -- 29.76 in1007.8 mb - 0.00 in0.0 mm 0.00 in0.0 mm
08:10 PM 64.3°F17.9°C 56.9°F13.8°C 77% Calm Calm -- 29.76 in1007.8 mb - 0.00 in0.0 mm 0.00 in0.0 mm
08:20 PM 63.7°F17.6°C 56.3°F13.5°C 77% Calm Calm -- 29.77 in1008.1 mb - 0.00 in0.0 mm 0.00 in0.0 mm
08:30 PM 63.2°F17.3°C 56.2°F13.4°C 78% Calm Calm -- 29.77 in1008.1 mb - 0.00 in0.0 mm 0.00 in0.0 mm
08:40 PM 62.5°F16.9°C 56.2°F13.4°C 80% Calm Calm -- 29.77 in1008.1 mb - 0.00 in0.0 mm 0.00 in0.0 mm
08:50 PM 61.8°F16.6°C 55.6°F13.1°C 80% Calm Calm -- 29.77 in1008.1 mb - 0.00 in0.0 mm 0.00 in0.0 mm
09:00 PM 61.4°F16.3°C 55.5°F13.1°C 81% Calm Calm -- 29.78 in1008.5 mb - 0.00 in0.0 mm 0.00 in0.0 mm
09:10 PM 61.0°F16.1°C 55.5°F13.1°C 82% Calm Calm -- 29.77 in1008.1 mb - 0.00 in0.0 mm 0.00 in0.0 mm
09:20 PM 60.6°F15.9°C 55.4°F13.0°C 83% Calm Calm -- 29.78 in1008.5 mb - 0.00 in0.0 mm 0.00 in0.0 mm
09:30 PM 60.3°F15.7°C 55.4°F13.0°C 84% Calm Calm -- 29.77 in1008.1 mb - 0.00 in0.0 mm 0.00 in0.0 mm
09:40 PM 60.1°F15.6°C 55.6°F13.1°C 85% Calm Calm -- 29.77 in1008.1 mb - 0.00 in0.0 mm 0.00 in0.0 mm
09:50 PM 59.9°F15.5°C 55.4°F13.0°C 85% Calm Calm -- 29.77 in1008.1 mb - 0.00 in0.0 mm 0.00 in0.0 mm
10:00 PM 59.8°F15.4°C 55.3°F12.9°C 85% Calm Calm -- 29.77 in1008.1 mb - 0.00 in0.0 mm 0.00 in0.0 mm
10:10 PM 59.6°F15.3°C 55.4°F13.0°C 86% Calm Calm -- 29.77 in1008.1 mb - 0.00 in0.0 mm 0.00 in0.0 mm
10:20 PM 59.4°F15.2°C 55.2°F12.9°C 86% Calm Calm -- 29.77 in1008.1 mb - 0.00 in0.0 mm 0.00 in0.0 mm
10:30 PM 59.1°F15.1°C 55.3°F12.9°C 87% Calm Calm -- 29.77 in1008.1 mb - 0.00 in0.0 mm 0.00 in0.0 mm
10:40 PM 58.9°F14.9°C 55.0°F12.8°C 87% Calm Calm -- 29.77 in1008.1 mb - 0.00 in0.0 mm 0.00 in0.0 mm
10:50 PM 58.6°F14.8°C 55.1°F12.8°C 88% Calm Calm -- 29.77 in1008.1 mb - 0.00 in0.0 mm 0.00 in0.0 mm
11:00 PM 58.3°F14.6°C 55.1°F12.8°C 89% Calm Calm -- 29.76 in1007.8 mb - 0.00 in0.0 mm 0.00 in0.0 mm
11:10 PM 58.2°F14.6°C 55.0°F12.8°C 89% Calm Calm -- 29.76 in1007.8 mb - 0.00 in0.0 mm 0.00 in0.0 mm
11:20 PM 57.9°F14.4°C 54.7°F12.6°C 89% Calm Calm -- 29.76 in1007.8 mb - 0.00 in0.0 mm 0.00 in0.0 mm
11:30 PM 57.6°F14.2°C 54.7°F12.6°C 90% Calm Calm -- 29.75 in1007.5 mb - 0.00 in0.0 mm 0.00 in0.0 mm
11:40 PM 57.3°F14.1°C 54.4°F12.4°C 90% Calm Calm -- 29.75 in1007.5 mb - 0.00 in0.0 mm 0.00 in0.0 mm
11:50 PM 57.1°F13.9°C 54.2°F12.3°C 90% Calm Calm -- 29.75 in1007.5 mb - 0.00 in0.0 mm 0.00 in0.0 mm